LOT87M EPKT-EPWA
Flight info
| Callsign | LOT87M |
|---|---|
| Flight time | 0h 36m |
| Altitude | 19000 |
| Route | DCT KOTEK M866 LOGDA DCT |
| Aircraft | E190/M-V/N |
Departure
| Time | 2026-05-03 21:56 |
|---|---|
| Airport | Katowice Wojciech Korfanty International Airport (EPKT) |
Arrival
| Time | 2026-05-03 22:32 |
|---|---|
| Airport | Warsaw Chopin Airport (EPWA) |
| Time | Latitude | Longitude | Altitude | Speed | Heading |
|---|---|---|---|---|---|
| 2026-05-03 21:40 | 50.47171 | 19.07163 | 982 ft | 0 kts | 180° |
| 2026-05-03 21:46 | 50.47184 | 19.07163 | 982 ft | 2 kts | 180° |
| 2026-05-03 21:46 | 50.47199 | 19.07163 | 982 ft | 2 kts | 180° |
| 2026-05-03 21:47 | 50.47214 | 19.07163 | 981 ft | 2 kts | 180° |
| 2026-05-03 21:47 | 50.47223 | 19.07163 | 981 ft | 2 kts | 165° |
| 2026-05-03 21:47 | 50.47235 | 19.07149 | 981 ft | 2 kts | 117° |
| 2026-05-03 21:47 | 50.47238 | 19.07132 | 980 ft | 1 kts | 89° |
| 2026-05-03 21:48 | 50.47238 | 19.07130 | 980 ft | 0 kts | 89° |
| 2026-05-03 21:51 | 50.47238 | 19.07133 | 980 ft | 1 kts | 90° |
| 2026-05-03 21:52 | 50.47237 | 19.07159 | 981 ft | 3 kts | 92° |
| 2026-05-03 21:52 | 50.47235 | 19.07226 | 981 ft | 8 kts | 92° |
| 2026-05-03 21:52 | 50.47236 | 19.07347 | 981 ft | 13 kts | 89° |
| 2026-05-03 21:52 | 50.47236 | 19.07521 | 982 ft | 17 kts | 90° |
| 2026-05-03 21:53 | 50.47236 | 19.07742 | 982 ft | 22 kts | 89° |
| 2026-05-03 21:53 | 50.47236 | 19.08012 | 982 ft | 26 kts | 90° |
| 2026-05-03 21:53 | 50.47234 | 19.08327 | 984 ft | 30 kts | 92° |
| 2026-05-03 21:53 | 50.47237 | 19.08676 | 986 ft | 33 kts | 90° |
| 2026-05-03 21:54 | 50.47235 | 19.09053 | 992 ft | 36 kts | 91° |
| 2026-05-03 21:54 | 50.47232 | 19.09474 | 997 ft | 40 kts | 89° |
| 2026-05-03 21:54 | 50.47236 | 19.09922 | 1007 ft | 36 kts | 91° |
| 2026-05-03 21:54 | 50.47334 | 19.10235 | 1012 ft | 32 kts | 50° |
| 2026-05-03 21:55 | 50.47492 | 19.10478 | 1008 ft | 29 kts | 1° |
| 2026-05-03 21:55 | 50.47591 | 19.10426 | 1006 ft | 8 kts | 300° |
| 2026-05-03 21:55 | 50.47601 | 19.10316 | 1006 ft | 15 kts | 269° |
| 2026-05-03 21:55 | 50.47599 | 19.09650 | 990 ft | 108 kts | 270° |
| 2026-05-03 21:56 | 50.47606 | 19.08092 | 1252 ft | 157 kts | 268° |
| 2026-05-03 21:56 | 50.47622 | 19.06679 | 2514 ft | 125 kts | 264° |
| 2026-05-03 21:56 | 50.47599 | 19.05155 | 2536 ft | 170 kts | 262° |
| 2026-05-03 21:56 | 50.47504 | 19.03346 | 3566 ft | 164 kts | 263° |
| 2026-05-03 21:57 | 50.47528 | 19.01447 | 4154 ft | 189 kts | 267° |
| 2026-05-03 21:57 | 50.47564 | 18.99207 | 4575 ft | 223 kts | 267° |
| 2026-05-03 21:57 | 50.47656 | 18.96677 | 5249 ft | 247 kts | 282° |
| 2026-05-03 21:57 | 50.48575 | 18.94367 | 5962 ft | 253 kts | 317° |
| 2026-05-03 21:58 | 50.50272 | 18.93239 | 6407 ft | 287 kts | 355° |
| 2026-05-03 21:58 | 50.52244 | 18.93478 | 7523 ft | 287 kts | 4° |
| 2026-05-03 21:58 | 50.54168 | 18.93676 | 8806 ft | 278 kts | 2° |
| 2026-05-03 21:58 | 50.56055 | 18.93774 | 9942 ft | 273 kts | 0° |
| 2026-05-03 21:59 | 50.57935 | 18.93826 | 10898 ft | 274 kts | 360° |
| 2026-05-03 21:59 | 50.59843 | 18.93855 | 11778 ft | 279 kts | 359° |
| 2026-05-03 21:59 | 50.61789 | 18.93874 | 12610 ft | 284 kts | 359° |
| 2026-05-03 21:59 | 50.63732 | 18.94305 | 13436 ft | 290 kts | 24° |
| 2026-05-03 22:00 | 50.65298 | 18.96272 | 14240 ft | 296 kts | 54° |
| 2026-05-03 22:00 | 50.66099 | 18.99334 | 14425 ft | 322 kts | 84° |
| 2026-05-03 22:00 | 50.66011 | 19.02971 | 14745 ft | 343 kts | 95° |
| 2026-05-03 22:00 | 50.65873 | 19.06791 | 15438 ft | 353 kts | 92° |
| 2026-05-03 22:01 | 50.65809 | 19.10646 | 16316 ft | 356 kts | 91° |
| 2026-05-03 22:01 | 50.65778 | 19.14519 | 17208 ft | 358 kts | 90° |
| 2026-05-03 22:01 | 50.65755 | 19.18392 | 18057 ft | 361 kts | 90° |
| 2026-05-03 22:01 | 50.65734 | 19.22327 | 18825 ft | 358 kts | 90° |
| 2026-05-03 22:02 | 50.65713 | 19.26285 | 18967 ft | 369 kts | 90° |
| 2026-05-03 22:02 | 50.65690 | 19.30432 | 19001 ft | 388 kts | 90° |
| 2026-05-03 22:02 | 50.65665 | 19.34714 | 18991 ft | 391 kts | 90° |
| 2026-05-03 22:02 | 50.65629 | 19.38995 | 18992 ft | 391 kts | 91° |
| 2026-05-03 22:03 | 50.65525 | 19.43281 | 18990 ft | 390 kts | 91° |
| 2026-05-03 22:03 | 50.65421 | 19.47537 | 18987 ft | 390 kts | 91° |
| 2026-05-03 22:03 | 50.65315 | 19.51787 | 18988 ft | 391 kts | 91° |
| 2026-05-03 22:03 | 50.65206 | 19.56069 | 18989 ft | 391 kts | 91° |
| 2026-05-03 22:04 | 50.65098 | 19.60296 | 18987 ft | 390 kts | 91° |
| 2026-05-03 22:04 | 50.64984 | 19.64593 | 18989 ft | 390 kts | 91° |
| 2026-05-03 22:04 | 50.64841 | 19.68812 | 18987 ft | 390 kts | 92° |
| 2026-05-03 22:04 | 50.64694 | 19.73066 | 18988 ft | 390 kts | 92° |
| 2026-05-03 22:05 | 50.64546 | 19.77294 | 18986 ft | 389 kts | 92° |
| 2026-05-03 22:05 | 50.64395 | 19.81568 | 18984 ft | 390 kts | 92° |
| 2026-05-03 22:05 | 50.64245 | 19.85788 | 18988 ft | 389 kts | 92° |
| 2026-05-03 22:05 | 50.64091 | 19.90020 | 18987 ft | 389 kts | 92° |
| 2026-05-03 22:06 | 50.63936 | 19.94279 | 18987 ft | 389 kts | 92° |
| 2026-05-03 22:06 | 50.63779 | 19.98542 | 18987 ft | 389 kts | 92° |
| 2026-05-03 22:06 | 50.63623 | 20.02754 | 18986 ft | 389 kts | 92° |
| 2026-05-03 22:06 | 50.63463 | 20.07008 | 18988 ft | 390 kts | 92° |
| 2026-05-03 22:07 | 50.63302 | 20.11248 | 18986 ft | 390 kts | 92° |
| 2026-05-03 22:07 | 50.63327 | 20.15492 | 18978 ft | 388 kts | 79° |
| 2026-05-03 22:07 | 50.63902 | 20.19614 | 18997 ft | 387 kts | 75° |
| 2026-05-03 22:07 | 50.64948 | 20.23434 | 18990 ft | 382 kts | 52° |
| 2026-05-03 22:08 | 50.66887 | 20.26272 | 19002 ft | 378 kts | 29° |
| 2026-05-03 22:08 | 50.69205 | 20.28089 | 19010 ft | 378 kts | 23° |
| 2026-05-03 22:08 | 50.71603 | 20.29794 | 18993 ft | 377 kts | 22° |
| 2026-05-03 22:08 | 50.74001 | 20.31462 | 18997 ft | 377 kts | 22° |
| 2026-05-03 22:09 | 50.76393 | 20.33115 | 18992 ft | 377 kts | 22° |
| 2026-05-03 22:09 | 50.78799 | 20.34773 | 18990 ft | 377 kts | 21° |
| 2026-05-03 22:09 | 50.81185 | 20.36420 | 18984 ft | 377 kts | 21° |
| 2026-05-03 22:10 | 50.86024 | 20.39761 | 19003 ft | 378 kts | 21° |
| 2026-05-03 22:10 | 50.88407 | 20.41410 | 18993 ft | 378 kts | 21° |
| 2026-05-03 22:10 | 50.90816 | 20.43079 | 18995 ft | 378 kts | 21° |
| 2026-05-03 22:10 | 50.93228 | 20.44750 | 18997 ft | 378 kts | 21° |
| 2026-05-03 22:11 | 50.95641 | 20.46425 | 18991 ft | 379 kts | 21° |
| 2026-05-03 22:11 | 50.98021 | 20.48079 | 18994 ft | 379 kts | 21° |
| 2026-05-03 22:11 | 51.00442 | 20.49763 | 19001 ft | 379 kts | 21° |
| 2026-05-03 22:11 | 51.02862 | 20.51449 | 19000 ft | 379 kts | 21° |
| 2026-05-03 22:12 | 51.05255 | 20.53117 | 19001 ft | 379 kts | 21° |
| 2026-05-03 22:12 | 51.07688 | 20.54816 | 18995 ft | 379 kts | 21° |
| 2026-05-03 22:12 | 51.10096 | 20.56499 | 18983 ft | 375 kts | 21° |
| 2026-05-03 22:12 | 51.12458 | 20.58152 | 18980 ft | 367 kts | 21° |
| 2026-05-03 22:13 | 51.14763 | 20.59766 | 18980 ft | 366 kts | 21° |
| 2026-05-03 22:13 | 51.17111 | 20.61412 | 18983 ft | 366 kts | 21° |
| 2026-05-03 22:13 | 51.19363 | 20.62993 | 18983 ft | 367 kts | 21° |
| 2026-05-03 22:13 | 51.21668 | 20.64613 | 18982 ft | 367 kts | 21° |
| 2026-05-03 22:14 | 51.24027 | 20.66272 | 18980 ft | 367 kts | 22° |
| 2026-05-03 22:14 | 51.26342 | 20.67903 | 18976 ft | 366 kts | 22° |
| 2026-05-03 22:14 | 51.28675 | 20.69492 | 18962 ft | 366 kts | 18° |
| 2026-05-03 22:14 | 51.31126 | 20.70817 | 18974 ft | 378 kts | 17° |
| 2026-05-03 22:15 | 51.33621 | 20.72149 | 18964 ft | 379 kts | 17° |
| 2026-05-03 22:15 | 51.36114 | 20.73482 | 18976 ft | 379 kts | 17° |
| 2026-05-03 22:15 | 51.38609 | 20.74818 | 18976 ft | 379 kts | 17° |
| 2026-05-03 22:15 | 51.41109 | 20.76157 | 18975 ft | 378 kts | 17° |
| 2026-05-03 22:16 | 51.43591 | 20.77490 | 18977 ft | 373 kts | 16° |
| 2026-05-03 22:16 | 51.46034 | 20.78802 | 18969 ft | 366 kts | 16° |
| 2026-05-03 22:16 | 51.48441 | 20.80096 | 18956 ft | 365 kts | 16° |
| 2026-05-03 22:16 | 51.50820 | 20.81376 | 18977 ft | 365 kts | 16° |
| 2026-05-03 22:17 | 51.53255 | 20.82689 | 18974 ft | 366 kts | 16° |
| 2026-05-03 22:17 | 51.55662 | 20.83987 | 18976 ft | 366 kts | 16° |
| 2026-05-03 22:17 | 51.58067 | 20.85287 | 18968 ft | 367 kts | 16° |
| 2026-05-03 22:17 | 51.60488 | 20.86595 | 18963 ft | 367 kts | 16° |
| 2026-05-03 22:18 | 51.62907 | 20.87905 | 18966 ft | 367 kts | 16° |
| 2026-05-03 22:18 | 51.65291 | 20.89197 | 18965 ft | 367 kts | 16° |
| 2026-05-03 22:18 | 51.67713 | 20.90512 | 18968 ft | 368 kts | 16° |
| 2026-05-03 22:18 | 51.70115 | 20.91786 | 18954 ft | 349 kts | 15° |
| 2026-05-03 22:19 | 51.72319 | 20.92941 | 18937 ft | 328 kts | 15° |
| 2026-05-03 22:19 | 51.74471 | 20.94067 | 18957 ft | 323 kts | 15° |
| 2026-05-03 22:19 | 51.76650 | 20.95059 | 18945 ft | 324 kts | 3° |
| 2026-05-03 22:19 | 51.78815 | 20.94616 | 18979 ft | 319 kts | 336° |
| 2026-05-03 22:20 | 51.80842 | 20.93095 | 18970 ft | 319 kts | 332° |
| 2026-05-03 22:20 | 51.82822 | 20.91497 | 18955 ft | 318 kts | 331° |
| 2026-05-03 22:20 | 51.84783 | 20.89888 | 18948 ft | 318 kts | 331° |
| 2026-05-03 22:20 | 51.86749 | 20.88263 | 18948 ft | 318 kts | 330° |
| 2026-05-03 22:21 | 51.88707 | 20.86640 | 18938 ft | 312 kts | 330° |
| 2026-05-03 22:21 | 51.90584 | 20.85083 | 18926 ft | 292 kts | 330° |
| 2026-05-03 22:21 | 51.92321 | 20.83638 | 18917 ft | 276 kts | 330° |
| 2026-05-03 22:21 | 51.94009 | 20.82230 | 18931 ft | 276 kts | 330° |
| 2026-05-03 22:22 | 51.95735 | 20.80804 | 18943 ft | 281 kts | 334° |
| 2026-05-03 22:22 | 51.97677 | 20.80324 | 18911 ft | 291 kts | 6° |
| 2026-05-03 22:22 | 51.99520 | 20.81563 | 18594 ft | 287 kts | 37° |
| 2026-05-03 22:22 | 52.00715 | 20.84112 | 17817 ft | 294 kts | 64° |
| 2026-05-03 22:23 | 52.01552 | 20.87118 | 16974 ft | 296 kts | 63° |
| 2026-05-03 22:23 | 52.02007 | 20.90349 | 16134 ft | 298 kts | 96° |
| 2026-05-03 22:23 | 52.01376 | 20.93446 | 15345 ft | 292 kts | 129° |
| 2026-05-03 22:23 | 51.99902 | 20.95582 | 14571 ft | 283 kts | 152° |
| 2026-05-03 22:24 | 51.98227 | 20.97198 | 13908 ft | 279 kts | 153° |
| 2026-05-03 22:24 | 51.96589 | 20.98706 | 13279 ft | 274 kts | 154° |
| 2026-05-03 22:24 | 51.94932 | 21.00195 | 12618 ft | 270 kts | 154° |
| 2026-05-03 22:24 | 51.93315 | 21.01632 | 11941 ft | 267 kts | 154° |
| 2026-05-03 22:25 | 51.91687 | 21.03054 | 11271 ft | 263 kts | 154° |
| 2026-05-03 22:25 | 51.90096 | 21.04438 | 10610 ft | 260 kts | 154° |
| 2026-05-03 22:25 | 51.88737 | 21.06273 | 9935 ft | 263 kts | 123° |
| 2026-05-03 22:25 | 51.88251 | 21.09082 | 9246 ft | 267 kts | 86° |
| 2026-05-03 22:26 | 51.88810 | 21.11895 | 8583 ft | 266 kts | 62° |
| 2026-05-03 22:26 | 51.89677 | 21.14483 | 7928 ft | 264 kts | 59° |
| 2026-05-03 22:26 | 51.90954 | 21.16495 | 7241 ft | 259 kts | 21° |
| 2026-05-03 22:26 | 51.92687 | 21.16907 | 6553 ft | 249 kts | 343° |
| 2026-05-03 22:27 | 51.94172 | 21.15980 | 5937 ft | 243 kts | 331° |
| 2026-05-03 22:27 | 51.95664 | 21.14792 | 5328 ft | 240 kts | 330° |
| 2026-05-03 22:27 | 51.97126 | 21.13581 | 4839 ft | 232 kts | 329° |
| 2026-05-03 22:27 | 51.98526 | 21.12396 | 4358 ft | 226 kts | 328° |
| 2026-05-03 22:28 | 51.99889 | 21.11229 | 3841 ft | 223 kts | 328° |
| 2026-05-03 22:28 | 52.01276 | 21.09991 | 3595 ft | 229 kts | 328° |
| 2026-05-03 22:28 | 52.02663 | 21.08780 | 3267 ft | 227 kts | 328° |
| 2026-05-03 22:28 | 52.04045 | 21.07581 | 2944 ft | 225 kts | 328° |
| 2026-05-03 22:29 | 52.05428 | 21.06387 | 2659 ft | 219 kts | 328° |
| 2026-05-03 22:29 | 52.06750 | 21.05242 | 2348 ft | 214 kts | 327° |
| 2026-05-03 22:29 | 52.08035 | 21.04129 | 2043 ft | 209 kts | 327° |
| 2026-05-03 22:29 | 52.09279 | 21.03052 | 1775 ft | 190 kts | 327° |
| 2026-05-03 22:30 | 52.10357 | 21.02118 | 1538 ft | 166 kts | 327° |
| 2026-05-03 22:30 | 52.11329 | 21.01277 | 1297 ft | 149 kts | 327° |
| 2026-05-03 22:30 | 52.12180 | 21.00537 | 1099 ft | 130 kts | 327° |
| 2026-05-03 22:30 | 52.12957 | 20.99858 | 937 ft | 125 kts | 328° |
| 2026-05-03 22:31 | 52.13732 | 20.99183 | 783 ft | 127 kts | 329° |
| 2026-05-03 22:31 | 52.14514 | 20.98487 | 627 ft | 128 kts | 329° |
| 2026-05-03 22:31 | 52.15297 | 20.97820 | 428 ft | 125 kts | 330° |
| 2026-05-03 22:31 | 52.16026 | 20.97191 | 366 ft | 108 kts | 331° |
| 2026-05-03 22:32 | 52.16628 | 20.96661 | 365 ft | 90 kts | 331° |
| 2026-05-03 22:32 | 52.17080 | 20.96283 | 365 ft | 44 kts | 344° |
| 2026-05-03 22:32 | 52.17372 | 20.96256 | 365 ft | 34 kts | 12° |
| 2026-05-03 22:32 | 52.17458 | 20.96409 | 365 ft | 15 kts | 94° |
| 2026-05-03 22:33 | 52.17487 | 20.96540 | 365 ft | 11 kts | 47° |
| 2026-05-03 22:33 | 52.17535 | 20.96653 | 365 ft | 14 kts | 58° |
| 2026-05-03 22:33 | 52.17597 | 20.96818 | 365 ft | 17 kts | 57° |
| 2026-05-03 22:33 | 52.17619 | 20.96934 | 365 ft | 8 kts | 121° |
| 2026-05-03 22:34 | 52.17575 | 20.96990 | 365 ft | 8 kts | 151° |
| 2026-05-03 22:34 | 52.17525 | 20.97033 | 365 ft | 8 kts | 152° |
| 2026-05-03 22:34 | 52.17473 | 20.97079 | 365 ft | 9 kts | 152° |
| 2026-05-03 22:34 | 52.17422 | 20.97124 | 365 ft | 5 kts | 151° |
| 2026-05-03 22:35 | 52.17395 | 20.97113 | 365 ft | 4 kts | 243° |
| 2026-05-03 22:35 | 52.17384 | 20.97075 | 365 ft | 1 kts | 245° |
| 2026-05-03 22:35 | 52.17381 | 20.97064 | 365 ft | 0 kts | 245° |
| 2026-05-03 22:35 | 52.17378 | 20.97056 | 365 ft | 0 kts | 239° |
| 2026-05-03 22:36 | 52.17377 | 20.97053 | 365 ft | 0 kts | 240° |